Flight Track Log - Related Links

Times and Time Zones

All times are in EDT time to prevent confusion due to time zone crossing. See the N960DL flight status page for this flight to view local times or setup timezone preferences in your user account.

Time Position Orientation Groundspeed Altitude Reporting Facility
EDT Latitude Longitude Course Direction KTS MPH feet Rate Location/Type
Fri 01:20:45 PM 30.4744 -87.1706 24° Northeast 140 161 1,100  Level Jacksonville Center
Fri 01:22:32 PM 30.5317 -87.0814 53° Northeast 244 281 4,300 2,156 Climbing Jacksonville Center
Fri 01:23:00 PM 30.7701 -87.0266 16° North  Level FlightAware Approximate
Fri 01:23:32 PM 30.6036 -87.0533 19° North 244 281 7,100  Level Jacksonville Center
Fri 01:24:00 PM 30.8753 -86.9860 25° Northeast  Level FlightAware Approximate
Fri 01:24:32 PM 30.6733 -87.0225 21° North 256 295 9,700  Level Jacksonville Center
Fri 01:25:00 PM 30.9755 -86.9303 25° Northeast  Level FlightAware Approximate
Fri 01:25:32 PM 30.7561 -86.9850 21° North 281 323 11,300  Level Jacksonville Center
Fri 01:26:00 PM 31.0661 -86.8826 24° Northeast  Level FlightAware Approximate
Fri 01:26:32 PM 30.8478 -86.9236 30° Northeast 327 376 12,700  Level Jacksonville Center
Fri 01:27:32 PM 30.9461 -86.8528 32° Northeast 380 437 14,800 2,200 Climbing Jacksonville Center
Fri 01:28:32 PM 31.0508 -86.7697 34° Northeast 401 461 17,100 2,050 Climbing Jacksonville Center
Fri 01:29:32 PM 31.1578 -86.6894 33° Northeast 425 489 18,900 1,900 Climbing Jacksonville Center
Fri 01:30:32 PM 31.2644 -86.6086 33° Northeast 447 514 20,900 1,330 Climbing Jacksonville Center
Fri 01:32:37 PM 31.4897 -86.4375 33° Northeast 476 548 23,000 681 Climbing Atlanta Center
Fri 01:33:37 PM 31.6019 -86.3478 34° Northeast 482 555 23,000  Level Atlanta Center
Fri 01:34:37 PM 31.7161 -86.2606 33° Northeast 482 555 23,000  Level Atlanta Center
Fri 01:35:37 PM 31.8283 -86.1728 34° Northeast 482 555 23,000  Level Atlanta Center
Fri 01:36:37 PM 31.9572 -86.0756 33° Northeast 496 571 23,000  Level Atlanta Center
Fri 01:37:37 PM 32.0672 -85.9872 34° Northeast 491 565 23,000  Level Atlanta Center
Fri 01:38:37 PM 32.1792 -85.8989 34° Northeast 484 557 23,000  Level Atlanta Center
Fri 01:39:37 PM 32.2892 -85.8128 33° Northeast 484 557 23,000  Level Atlanta Center
Fri 01:40:37 PM 32.3928 -85.7214 37° Northeast 473 544 23,000  Level Atlanta Center
Fri 01:41:37 PM 32.4961 -85.6347 35° Northeast 462 532 23,000  Level Atlanta Center
Fri 01:42:37 PM 32.5931 -85.5503 36° Northeast 447 514 23,000 -800 Level Atlanta Center
Fri 01:43:37 PM 32.6858 -85.4678 37° Northeast 428 493 21,400 -1,750 Descending Atlanta Center
Fri 01:44:37 PM 32.7744 -85.3903 36° Northeast 409 471 19,500 -1,950 Descending Atlanta Center
Fri 01:45:37 PM 32.8589 -85.3172 36° Northeast 391 450 17,500 -2,050 Descending Atlanta Center
Fri 01:46:37 PM 32.9431 -85.2417 37° Northeast 379 436 15,400 -1,950 Descending Atlanta Center
Fri 01:47:37 PM 33.0250 -85.1686 47° Northeast 374 430 13,600 -1,650 Descending Atlanta Center
Fri 01:48:00 PM 33.0650 -85.1593 47° Northeast  Level FlightAware Approximate
Fri 01:48:37 PM 33.1050 -85.1028 35° Northeast 360 414 12,100  Level Atlanta Center
Fri 01:49:37 PM 33.1767 -85.0364 38° Northeast 353 406 12,000 -350 Descending Atlanta Center
Fri 01:50:37 PM 33.2378 -84.9603 46° Northeast 322 371 11,400 -1,200 Descending Atlanta Center
Fri 01:51:37 PM 33.2925 -84.8911 47° Northeast 291 335 9,600 -1,850 Descending Atlanta Center
Fri 01:52:37 PM 33.3450 -84.8222 48° Northeast 285 328 7,700 -1,895 Descending Atlanta Center
Fri 01:53:31 PM 33.4000 -84.7833 31° Northeast 293 337 6,000 -1,842 Descending Atlanta TRACON
Fri 01:54:31 PM 33.4833 -84.7833 360° North 278 320 4,200 -1,250 Descending Atlanta TRACON
Fri 01:55:31 PM 33.5500 -84.7833 360° North 244 281 3,500 -600 Descending Atlanta TRACON
Fri 01:56:31 PM 33.6167 -84.7667 12° North 221 254 3,000 -250 Descending Atlanta TRACON
Fri 01:57:31 PM 33.6167 -84.7000 90° East 175 201 3,000  Level Atlanta TRACON
Fri 01:58:37 PM 33.6167 -84.6500 90° East 164 189 3,000  Level Atlanta TRACON

Login

Don't have an account? Register now (free) for customized features, flight alerts, and more!